sensor_id;sensor_type;location;lat;lon;timestamp;pressure;altitude;pressure_sealevel;temperature
1532;BMP280;759;53.170;8.210;2023-09-12T00:00:29;99993.75;;;22.51
1532;BMP280;759;53.170;8.210;2023-09-12T00:02:54;100002.94;;;22.42
1532;BMP280;759;53.170;8.210;2023-09-12T00:05:19;100021.00;;;22.40
1532;BMP280;759;53.170;8.210;2023-09-12T00:07:45;100012.31;;;22.30
1532;BMP280;759;53.170;8.210;2023-09-12T00:10:10;100019.72;;;22.24
1532;BMP280;759;53.170;8.210;2023-09-12T00:12:35;100023.66;;;22.23
1532;BMP280;759;53.170;8.210;2023-09-12T00:15:00;100024.41;;;22.23
1532;BMP280;759;53.170;8.210;2023-09-12T00:17:29;100042.03;;;22.28
1532;BMP280;759;53.170;8.210;2023-09-12T00:19:54;100036.53;;;22.17
1532;BMP280;759;53.170;8.210;2023-09-12T00:22:19;100038.06;;;22.29
1532;BMP280;759;53.170;8.210;2023-09-12T00:24:44;100034.63;;;22.34
1532;BMP280;759;53.170;8.210;2023-09-12T00:27:09;100042.09;;;22.50
1532;BMP280;759;53.170;8.210;2023-09-12T00:29:34;100047.53;;;22.50
1532;BMP280;759;53.170;8.210;2023-09-12T00:32:00;100045.75;;;22.30
1532;BMP280;759;53.170;8.210;2023-09-12T00:34:25;100049.97;;;22.31
1532;BMP280;759;53.170;8.210;2023-09-12T00:36:50;100051.16;;;22.25
1532;BMP280;759;53.170;8.210;2023-09-12T00:39:15;100060.78;;;22.09
1532;BMP280;759;53.170;8.210;2023-09-12T00:41:40;100065.50;;;22.20
1532;BMP280;759;53.170;8.210;2023-09-12T00:44:05;100077.16;;;22.15
1532;BMP280;759;53.170;8.210;2023-09-12T00:46:31;100082.09;;;22.11
1532;BMP280;759;53.170;8.210;2023-09-12T00:48:57;100070.69;;;22.18
1532;BMP280;759;53.170;8.210;2023-09-12T00:51:22;100071.69;;;22.15
1532;BMP280;759;53.170;8.210;2023-09-12T00:53:48;100064.94;;;21.99
1532;BMP280;759;53.170;8.210;2023-09-12T00:56:14;100049.91;;;22.15
1532;BMP280;759;53.170;8.210;2023-09-12T00:58:39;100048.09;;;22.00
1532;BMP280;759;53.170;8.210;2023-09-12T01:01:05;100051.31;;;22.04
1532;BMP280;759;53.170;8.210;2023-09-12T01:03:30;100042.69;;;22.12
1532;BMP280;759;53.170;8.210;2023-09-12T01:05:56;100050.91;;;22.23
1532;BMP280;759;53.170;8.210;2023-09-12T01:08:22;100053.34;;;22.15
1532;BMP280;759;53.170;8.210;2023-09-12T01:10:47;100068.75;;;22.18
1532;BMP280;759;53.170;8.210;2023-09-12T01:13:14;100075.50;;;21.91
1532;BMP280;759;53.170;8.210;2023-09-12T01:15:40;100068.50;;;21.79
1532;BMP280;759;53.170;8.210;2023-09-12T01:18:05;100066.28;;;21.77
1532;BMP280;759;53.170;8.210;2023-09-12T01:20:31;100062.59;;;21.75
1532;BMP280;759;53.170;8.210;2023-09-12T01:25:41;100049.81;;;21.98
1532;BMP280;759;53.170;8.210;2023-09-12T01:28:08;100059.72;;;21.95
1532;BMP280;759;53.170;8.210;2023-09-12T01:30:34;100061.59;;;21.78
1532;BMP280;759;53.170;8.210;2023-09-12T01:32:59;100069.06;;;21.83
1532;BMP280;759;53.170;8.210;2023-09-12T01:35:25;100063.63;;;21.83
1532;BMP280;759;53.170;8.210;2023-09-12T01:37:50;100040.94;;;22.03
1532;BMP280;759;53.170;8.210;2023-09-12T01:40:15;100035.72;;;21.99
1532;BMP280;759;53.170;8.210;2023-09-12T01:42:43;100038.56;;;21.73
1532;BMP280;759;53.170;8.210;2023-09-12T01:45:10;100031.69;;;21.89
1532;BMP280;759;53.170;8.210;2023-09-12T01:47:36;100020.97;;;21.69
1532;BMP280;759;53.170;8.210;2023-09-12T01:50:02;100019.72;;;21.70
1532;BMP280;759;53.170;8.210;2023-09-12T01:52:28;100025.19;;;21.75
1532;BMP280;759;53.170;8.210;2023-09-12T01:54:53;100020.06;;;21.83
1532;BMP280;759;53.170;8.210;2023-09-12T01:57:19;100027.19;;;21.75
1532;BMP280;759;53.170;8.210;2023-09-12T01:59:48;100050.31;;;21.59
1532;BMP280;759;53.170;8.210;2023-09-12T02:02:14;100034.31;;;21.67
1532;BMP280;759;53.170;8.210;2023-09-12T02:04:39;100000.63;;;21.64
1532;BMP280;759;53.170;8.210;2023-09-12T02:07:04;99983.41;;;21.84
1532;BMP280;759;53.170;8.210;2023-09-12T02:09:30;99976.25;;;21.87
1532;BMP280;759;53.170;8.210;2023-09-12T02:11:55;99972.25;;;21.88
1532;BMP280;759;53.170;8.210;2023-09-12T02:14:20;99956.97;;;21.90
1532;BMP280;759;53.170;8.210;2023-09-12T02:16:45;99961.94;;;22.03
1532;BMP280;759;53.170;8.210;2023-09-12T02:19:10;99958.72;;;22.04
1532;BMP280;759;53.170;8.210;2023-09-12T02:21:35;99965.38;;;21.92
1532;BMP280;759;53.170;8.210;2023-09-12T02:24:01;99967.63;;;21.99
1532;BMP280;759;53.170;8.210;2023-09-12T02:26:26;99966.06;;;21.87
1532;BMP280;759;53.170;8.210;2023-09-12T02:28:51;99963.31;;;21.70
1532;BMP280;759;53.170;8.210;2023-09-12T02:31:16;99979.38;;;21.68
1532;BMP280;759;53.170;8.210;2023-09-12T02:33:41;99988.19;;;21.46
1532;BMP280;759;53.170;8.210;2023-09-12T02:36:07;100001.56;;;21.50
1532;BMP280;759;53.170;8.210;2023-09-12T02:38:32;100027.72;;;21.47
1532;BMP280;759;53.170;8.210;2023-09-12T02:40:57;100058.94;;;21.46
1532;BMP280;759;53.170;8.210;2023-09-12T02:43:22;100067.34;;;21.48
1532;BMP280;759;53.170;8.210;2023-09-12T02:45:48;100072.31;;;21.55
1532;BMP280;759;53.170;8.210;2023-09-12T02:48:13;100058.22;;;21.57
1532;BMP280;759;53.170;8.210;2023-09-12T02:50:38;100052.75;;;21.51
1532;BMP280;759;53.170;8.210;2023-09-12T02:53:03;100056.53;;;21.59
1532;BMP280;759;53.170;8.210;2023-09-12T02:55:28;100061.00;;;21.63
1532;BMP280;759;53.170;8.210;2023-09-12T02:57:54;100043.88;;;21.56
1532;BMP280;759;53.170;8.210;2023-09-12T03:00:19;100041.81;;;21.46
1532;BMP280;759;53.170;8.210;2023-09-12T03:02:44;100038.88;;;21.49
1532;BMP280;759;53.170;8.210;2023-09-12T03:05:10;100024.84;;;21.56
1532;BMP280;759;53.170;8.210;2023-09-12T03:07:35;100014.16;;;21.53
1532;BMP280;759;53.170;8.210;2023-09-12T03:10:00;100016.16;;;21.52
1532;BMP280;759;53.170;8.210;2023-09-12T03:12:25;100006.06;;;21.58
1532;BMP280;759;53.170;8.210;2023-09-12T03:14:50;100007.97;;;21.52
1532;BMP280;759;53.170;8.210;2023-09-12T03:17:15;100002.19;;;21.39
1532;BMP280;759;53.170;8.210;2023-09-12T03:19:41;100008.72;;;21.53
1532;BMP280;759;53.170;8.210;2023-09-12T03:22:06;100005.72;;;21.51
1532;BMP280;759;53.170;8.210;2023-09-12T03:24:31;100004.28;;;21.55
1532;BMP280;759;53.170;8.210;2023-09-12T03:26:56;99996.00;;;21.33
1532;BMP280;759;53.170;8.210;2023-09-12T03:29:21;99987.91;;;21.44
1532;BMP280;759;53.170;8.210;2023-09-12T03:31:47;99985.94;;;21.45
1532;BMP280;759;53.170;8.210;2023-09-12T03:34:13;99981.47;;;21.47
1532;BMP280;759;53.170;8.210;2023-09-12T03:36:38;99975.50;;;21.43
1532;BMP280;759;53.170;8.210;2023-09-12T03:39:03;99956.41;;;21.32
1532;BMP280;759;53.170;8.210;2023-09-12T03:41:30;99965.66;;;21.51
1532;BMP280;759;53.170;8.210;2023-09-12T03:43:56;99960.34;;;21.31
1532;BMP280;759;53.170;8.210;2023-09-12T03:46:21;99961.59;;;21.30
1532;BMP280;759;53.170;8.210;2023-09-12T03:48:46;99951.94;;;21.29
1532;BMP280;759;53.170;8.210;2023-09-12T03:51:12;99957.88;;;21.27
1532;BMP280;759;53.170;8.210;2023-09-12T03:53:37;99956.34;;;21.21
1532;BMP280;759;53.170;8.210;2023-09-12T03:56:02;99951.41;;;21.25
1532;BMP280;759;53.170;8.210;2023-09-12T03:58:27;99962.28;;;21.25
1532;BMP280;759;53.170;8.210;2023-09-12T04:00:52;99955.38;;;21.24
1532;BMP280;759;53.170;8.210;2023-09-12T04:03:18;99954.47;;;21.38
1532;BMP280;759;53.170;8.210;2023-09-12T04:05:43;99960.56;;;21.22
1532;BMP280;759;53.170;8.210;2023-09-12T04:08:08;99950.41;;;21.22
1532;BMP280;759;53.170;8.210;2023-09-12T04:10:33;99955.44;;;21.35
1532;BMP280;759;53.170;8.210;2023-09-12T04:12:58;99957.91;;;21.33
1532;BMP280;759;53.170;8.210;2023-09-12T04:15:24;99959.13;;;21.32
1532;BMP280;759;53.170;8.210;2023-09-12T04:17:49;99961.16;;;21.37
1532;BMP280;759;53.170;8.210;2023-09-12T04:20:14;99967.56;;;21.40
1532;BMP280;759;53.170;8.210;2023-09-12T04:22:40;99975.78;;;21.45
1532;BMP280;759;53.170;8.210;2023-09-12T04:25:05;99990.34;;;21.42
1532;BMP280;759;53.170;8.210;2023-09-12T04:27:31;99999.47;;;21.39
1532;BMP280;759;53.170;8.210;2023-09-12T04:29:56;99993.81;;;21.43
1532;BMP280;759;53.170;8.210;2023-09-12T04:32:21;100006.88;;;21.33
1532;BMP280;759;53.170;8.210;2023-09-12T04:34:48;100001.47;;;21.39
1532;BMP280;759;53.170;8.210;2023-09-12T04:37:13;100004.84;;;21.28
1532;BMP280;759;53.170;8.210;2023-09-12T04:39:39;100009.06;;;21.29
1532;BMP280;759;53.170;8.210;2023-09-12T04:42:04;100000.81;;;21.18
1532;BMP280;759;53.170;8.210;2023-09-12T04:44:33;100005.28;;;21.21
1532;BMP280;759;53.170;8.210;2023-09-12T04:46:59;100005.38;;;21.32
1532;BMP280;759;53.170;8.210;2023-09-12T04:49:24;100014.84;;;21.42
1532;BMP280;759;53.170;8.210;2023-09-12T04:51:49;100014.50;;;21.34
1532;BMP280;759;53.170;8.210;2023-09-12T04:54:15;100019.75;;;21.38
1532;BMP280;759;53.170;8.210;2023-09-12T04:56:40;100023.28;;;21.44
1532;BMP280;759;53.170;8.210;2023-09-12T04:59:05;100006.34;;;21.29
1532;BMP280;759;53.170;8.210;2023-09-12T05:01:31;100007.84;;;21.30
1532;BMP280;759;53.170;8.210;2023-09-12T05:03:57;100012.34;;;21.39
1532;BMP280;759;53.170;8.210;2023-09-12T05:06:22;100011.56;;;21.32
1532;BMP280;759;53.170;8.210;2023-09-12T05:08:47;100010.50;;;21.24
1532;BMP280;759;53.170;8.210;2023-09-12T05:11:12;100024.56;;;21.23
1532;BMP280;759;53.170;8.210;2023-09-12T05:13:37;100025.72;;;21.10
1532;BMP280;759;53.170;8.210;2023-09-12T05:16:02;100026.84;;;21.24
1532;BMP280;759;53.170;8.210;2023-09-12T05:18:28;100030.19;;;21.13
1532;BMP280;759;53.170;8.210;2023-09-12T05:20:53;100022.38;;;21.27
1532;BMP280;759;53.170;8.210;2023-09-12T05:23:19;100031.13;;;21.05
1532;BMP280;759;53.170;8.210;2023-09-12T05:25:44;100022.84;;;21.20
1532;BMP280;759;53.170;8.210;2023-09-12T05:28:09;100022.75;;;21.08
1532;BMP280;759;53.170;8.210;2023-09-12T05:30:34;100021.34;;;21.19
1532;BMP280;759;53.170;8.210;2023-09-12T05:33:00;100025.25;;;21.12
1532;BMP280;759;53.170;8.210;2023-09-12T05:35:25;100027.38;;;21.02
1532;BMP280;759;53.170;8.210;2023-09-12T05:37:50;100031.00;;;21.20
1532;BMP280;759;53.170;8.210;2023-09-12T05:40:16;100029.28;;;21.22
1532;BMP280;759;53.170;8.210;2023-09-12T05:42:41;100019.13;;;21.17
1532;BMP280;759;53.170;8.210;2023-09-12T05:45:06;100025.69;;;21.05
1532;BMP280;759;53.170;8.210;2023-09-12T05:47:32;100027.78;;;21.21
1532;BMP280;759;53.170;8.210;2023-09-12T05:49:57;100032.19;;;21.13
1532;BMP280;759;53.170;8.210;2023-09-12T05:52:24;100036.38;;;21.08
1532;BMP280;759;53.170;8.210;2023-09-12T05:54:49;100035.16;;;21.15
1532;BMP280;759;53.170;8.210;2023-09-12T05:57:18;100033.72;;;21.20
1532;BMP280;759;53.170;8.210;2023-09-12T06:03:07;100024.97;;;21.42
1532;BMP280;759;53.170;8.210;2023-09-12T06:05:35;100041.00;;;21.34
1532;BMP280;759;53.170;8.210;2023-09-12T06:08:03;100039.53;;;21.33
1532;BMP280;759;53.170;8.210;2023-09-12T06:10:29;100041.53;;;21.38
1532;BMP280;759;53.170;8.210;2023-09-12T06:12:55;100044.50;;;21.40
1532;BMP280;759;53.170;8.210;2023-09-12T06:15:20;100050.44;;;21.39
1532;BMP280;759;53.170;8.210;2023-09-12T06:20:20;100055.16;;;21.44
1532;BMP280;759;53.170;8.210;2023-09-12T06:22:46;100047.81;;;21.55
1532;BMP280;759;53.170;8.210;2023-09-12T06:25:12;100041.50;;;21.70
1532;BMP280;759;53.170;8.210;2023-09-12T06:27:37;100030.84;;;21.72
1532;BMP280;759;53.170;8.210;2023-09-12T06:30:02;100028.13;;;21.72
1532;BMP280;759;53.170;8.210;2023-09-12T06:32:27;100026.72;;;21.82
1532;BMP280;759;53.170;8.210;2023-09-12T06:34:52;100023.94;;;21.71
1532;BMP280;759;53.170;8.210;2023-09-12T06:37:18;100024.84;;;21.56
1532;BMP280;759;53.170;8.210;2023-09-12T06:39:43;100025.97;;;21.87
1532;BMP280;759;53.170;8.210;2023-09-12T06:42:08;100021.81;;;21.86
1532;BMP280;759;53.170;8.210;2023-09-12T06:44:34;100011.09;;;21.77
1532;BMP280;759;53.170;8.210;2023-09-12T06:46:59;100020.13;;;21.57
1532;BMP280;759;53.170;8.210;2023-09-12T06:49:24;100015.44;;;21.57
1532;BMP280;759;53.170;8.210;2023-09-12T06:51:49;100010.53;;;21.62
1532;BMP280;759;53.170;8.210;2023-09-12T06:54:14;100010.38;;;21.39
1532;BMP280;759;53.170;8.210;2023-09-12T06:56:40;100024.16;;;21.67
1532;BMP280;759;53.170;8.210;2023-09-12T06:59:07;100028.84;;;21.67
1532;BMP280;759;53.170;8.210;2023-09-12T07:01:32;100040.34;;;21.82
1532;BMP280;759;53.170;8.210;2023-09-12T07:03:58;100043.59;;;21.86
1532;BMP280;759;53.170;8.210;2023-09-12T07:06:23;100041.38;;;21.90
1532;BMP280;759;53.170;8.210;2023-09-12T07:08:48;100033.00;;;21.99
1532;BMP280;759;53.170;8.210;2023-09-12T07:11:14;100046.88;;;22.01
1532;BMP280;759;53.170;8.210;2023-09-12T07:13:39;100054.72;;;21.88
1532;BMP280;759;53.170;8.210;2023-09-12T07:16:04;100057.19;;;21.86
1532;BMP280;759;53.170;8.210;2023-09-12T07:18:30;100049.28;;;21.88
1532;BMP280;759;53.170;8.210;2023-09-12T07:20:58;100061.66;;;21.89
1532;BMP280;759;53.170;8.210;2023-09-12T07:23:23;100063.84;;;21.85
1532;BMP280;759;53.170;8.210;2023-09-12T07:25:48;100076.25;;;21.86
1532;BMP280;759;53.170;8.210;2023-09-12T07:28:14;100073.06;;;21.93
1532;BMP280;759;53.170;8.210;2023-09-12T07:30:39;100066.97;;;21.67
1532;BMP280;759;53.170;8.210;2023-09-12T07:33:05;100065.94;;;21.58
1532;BMP280;759;53.170;8.210;2023-09-12T07:35:30;100066.16;;;21.60
1532;BMP280;759;53.170;8.210;2023-09-12T07:37:55;100071.41;;;21.32
1532;BMP280;759;53.170;8.210;2023-09-12T07:40:21;100071.09;;;21.56
1532;BMP280;759;53.170;8.210;2023-09-12T07:42:46;100091.09;;;21.53
1532;BMP280;759;53.170;8.210;2023-09-12T07:45:11;100094.56;;;21.48
1532;BMP280;759;53.170;8.210;2023-09-12T07:47:36;100112.81;;;21.48
1532;BMP280;759;53.170;8.210;2023-09-12T07:50:02;100111.03;;;21.39
1532;BMP280;759;53.170;8.210;2023-09-12T07:52:27;100114.13;;;21.52
1532;BMP280;759;53.170;8.210;2023-09-12T07:54:58;100116.53;;;21.76
1532;BMP280;759;53.170;8.210;2023-09-12T07:57:24;100137.88;;;21.89
1532;BMP280;759;53.170;8.210;2023-09-12T07:59:49;100142.97;;;22.07
1532;BMP280;759;53.170;8.210;2023-09-12T08:02:14;100153.78;;;21.96
1532;BMP280;759;53.170;8.210;2023-09-12T08:04:39;100164.31;;;22.15
1532;BMP280;759;53.170;8.210;2023-09-12T08:07:04;100155.47;;;22.31
1532;BMP280;759;53.170;8.210;2023-09-12T08:09:47;100173.88;;;22.42
1532;BMP280;759;53.170;8.210;2023-09-12T08:12:12;100174.41;;;22.51
1532;BMP280;759;53.170;8.210;2023-09-12T08:14:37;100176.38;;;22.45
1532;BMP280;759;53.170;8.210;2023-09-12T08:17:03;100194.00;;;22.55
1532;BMP280;759;53.170;8.210;2023-09-12T08:19:28;100192.22;;;22.41
1532;BMP280;759;53.170;8.210;2023-09-12T08:21:53;100182.13;;;22.16
1532;BMP280;759;53.170;8.210;2023-09-12T08:24:18;100194.41;;;22.37
1532;BMP280;759;53.170;8.210;2023-09-12T08:26:44;100185.34;;;22.14
1532;BMP280;759;53.170;8.210;2023-09-12T08:29:09;100183.06;;;22.07
1532;BMP280;759;53.170;8.210;2023-09-12T08:31:34;100174.22;;;22.18
1532;BMP280;759;53.170;8.210;2023-09-12T08:33:59;100158.59;;;22.13
1532;BMP280;759;53.170;8.210;2023-09-12T08:36:25;100170.09;;;22.28
1532;BMP280;759;53.170;8.210;2023-09-12T08:38:50;100182.72;;;22.31
1532;BMP280;759;53.170;8.210;2023-09-12T08:41:15;100181.50;;;22.32
1532;BMP280;759;53.170;8.210;2023-09-12T08:43:40;100187.91;;;21.86
1532;BMP280;759;53.170;8.210;2023-09-12T08:46:05;100170.72;;;22.12
1532;BMP280;759;53.170;8.210;2023-09-12T08:48:31;100186.63;;;22.19
1532;BMP280;759;53.170;8.210;2023-09-12T08:50:56;100185.97;;;22.35
1532;BMP280;759;53.170;8.210;2023-09-12T08:53:22;100197.44;;;22.07
1532;BMP280;759;53.170;8.210;2023-09-12T08:55:47;100205.19;;;22.15
1532;BMP280;759;53.170;8.210;2023-09-12T08:58:12;100192.94;;;22.04
1532;BMP280;759;53.170;8.210;2023-09-12T09:00:38;100199.47;;;22.13
1532;BMP280;759;53.170;8.210;2023-09-12T09:03:03;100190.22;;;22.04
1532;BMP280;759;53.170;8.210;2023-09-12T09:05:29;100218.22;;;22.05
1532;BMP280;759;53.170;8.210;2023-09-12T09:07:54;100205.44;;;21.85
1532;BMP280;759;53.170;8.210;2023-09-12T09:10:22;100221.31;;;22.18
1532;BMP280;759;53.170;8.210;2023-09-12T09:12:47;100231.69;;;22.20
1532;BMP280;759;53.170;8.210;2023-09-12T09:15:28;100242.47;;;22.35
1532;BMP280;759;53.170;8.210;2023-09-12T09:17:54;100259.78;;;22.80
1532;BMP280;759;53.170;8.210;2023-09-12T09:20:27;100247.53;;;22.53
1532;BMP280;759;53.170;8.210;2023-09-12T09:23:09;100251.16;;;22.44
1532;BMP280;759;53.170;8.210;2023-09-12T09:25:43;100262.97;;;22.67
1532;BMP280;759;53.170;8.210;2023-09-12T09:28:20;100305.81;;;22.67
1532;BMP280;759;53.170;8.210;2023-09-12T09:30:49;100292.03;;;22.81
1532;BMP280;759;53.170;8.210;2023-09-12T09:33:16;100306.22;;;22.48
1532;BMP280;759;53.170;8.210;2023-09-12T09:35:41;100312.94;;;22.96
1532;BMP280;759;53.170;8.210;2023-09-12T09:38:07;100329.88;;;23.17
1532;BMP280;759;53.170;8.210;2023-09-12T09:40:33;100349.63;;;23.49
1532;BMP280;759;53.170;8.210;2023-09-12T09:42:59;100352.59;;;23.45
1532;BMP280;759;53.170;8.210;2023-09-12T09:45:24;100358.75;;;23.46
1532;BMP280;759;53.170;8.210;2023-09-12T09:47:50;100349.81;;;23.34
1532;BMP280;759;53.170;8.210;2023-09-12T09:50:16;100342.34;;;23.29
1532;BMP280;759;53.170;8.210;2023-09-12T09:52:42;100356.94;;;23.15
1532;BMP280;759;53.170;8.210;2023-09-12T09:55:07;100361.13;;;23.16
1532;BMP280;759;53.170;8.210;2023-09-12T09:57:38;100369.06;;;23.14
1532;BMP280;759;53.170;8.210;2023-09-12T10:00:04;100340.81;;;23.17
1532;BMP280;759;53.170;8.210;2023-09-12T10:02:34;100348.22;;;23.11
1532;BMP280;759;53.170;8.210;2023-09-12T10:05:00;100342.44;;;22.97
1532;BMP280;759;53.170;8.210;2023-09-12T10:07:25;100329.97;;;22.79
1532;BMP280;759;53.170;8.210;2023-09-12T10:09:51;100320.50;;;22.69
1532;BMP280;759;53.170;8.210;2023-09-12T10:12:16;100316.94;;;22.58
1532;BMP280;759;53.170;8.210;2023-09-12T10:14:42;100325.09;;;22.58
1532;BMP280;759;53.170;8.210;2023-09-12T10:17:08;100321.00;;;22.36
1532;BMP280;759;53.170;8.210;2023-09-12T10:19:38;100323.09;;;22.52
1532;BMP280;759;53.170;8.210;2023-09-12T10:22:10;100320.84;;;22.51
1532;BMP280;759;53.170;8.210;2023-09-12T10:24:37;100320.84;;;22.88
1532;BMP280;759;53.170;8.210;2023-09-12T10:27:04;100304.72;;;22.90
1532;BMP280;759;53.170;8.210;2023-09-12T10:29:30;100303.53;;;23.08
1532;BMP280;759;53.170;8.210;2023-09-12T10:31:56;100303.34;;;23.17
1532;BMP280;759;53.170;8.210;2023-09-12T10:34:21;100317.31;;;23.36
1532;BMP280;759;53.170;8.210;2023-09-12T10:36:49;100325.75;;;23.44
1532;BMP280;759;53.170;8.210;2023-09-12T10:39:14;100321.59;;;23.71
1532;BMP280;759;53.170;8.210;2023-09-12T10:41:40;100332.03;;;23.67
1532;BMP280;759;53.170;8.210;2023-09-12T10:44:15;100328.34;;;23.81
1532;BMP280;759;53.170;8.210;2023-09-12T10:46:40;100330.31;;;24.03
1532;BMP280;759;53.170;8.210;2023-09-12T10:49:09;100331.03;;;24.09
1532;BMP280;759;53.170;8.210;2023-09-12T10:51:39;100345.16;;;23.57
1532;BMP280;759;53.170;8.210;2023-09-12T10:54:05;100330.88;;;23.14
1532;BMP280;759;53.170;8.210;2023-09-12T10:56:30;100336.22;;;23.51
1532;BMP280;759;53.170;8.210;2023-09-12T11:01:35;100375.81;;;24.12
1532;BMP280;759;53.170;8.210;2023-09-12T11:06:44;100395.19;;;24.47
1532;BMP280;759;53.170;8.210;2023-09-12T11:09:16;100405.59;;;24.55
1532;BMP280;759;53.170;8.210;2023-09-12T11:12:02;100423.22;;;24.59
1532;BMP280;759;53.170;8.210;2023-09-12T11:14:27;100425.91;;;24.98
1532;BMP280;759;53.170;8.210;2023-09-12T11:19:46;100442.44;;;25.34
1532;BMP280;759;53.170;8.210;2023-09-12T11:22:21;100458.31;;;25.52
1532;BMP280;759;53.170;8.210;2023-09-12T11:24:46;100465.53;;;25.56
1532;BMP280;759;53.170;8.210;2023-09-12T11:27:12;100447.06;;;24.81
1532;BMP280;759;53.170;8.210;2023-09-12T11:29:38;100459.22;;;25.02
1532;BMP280;759;53.170;8.210;2023-09-12T11:32:04;100453.22;;;25.15
1532;BMP280;759;53.170;8.210;2023-09-12T11:34:30;100454.75;;;24.99
1532;BMP280;759;53.170;8.210;2023-09-12T11:37:00;100469.53;;;25.43
1532;BMP280;759;53.170;8.210;2023-09-12T11:39:28;100460.72;;;25.03
1532;BMP280;759;53.170;8.210;2023-09-12T11:41:54;100473.19;;;25.05
1532;BMP280;759;53.170;8.210;2023-09-12T11:44:20;100455.47;;;25.11
1532;BMP280;759;53.170;8.210;2023-09-12T11:46:49;100467.22;;;24.95
1532;BMP280;759;53.170;8.210;2023-09-12T11:49:15;100465.25;;;24.78
1532;BMP280;759;53.170;8.210;2023-09-12T11:51:47;100457.78;;;24.90
1532;BMP280;759;53.170;8.210;2023-09-12T11:54:14;100454.03;;;24.88
1532;BMP280;759;53.170;8.210;2023-09-12T11:56:39;100460.25;;;24.77
1532;BMP280;759;53.170;8.210;2023-09-12T11:59:04;100459.28;;;24.86
1532;BMP280;759;53.170;8.210;2023-09-12T12:01:30;100473.19;;;24.76
1532;BMP280;759;53.170;8.210;2023-09-12T12:03:56;100463.19;;;25.01
1532;BMP280;759;53.170;8.210;2023-09-12T12:06:22;100460.47;;;24.96
1532;BMP280;759;53.170;8.210;2023-09-12T12:08:47;100460.91;;;25.22
1532;BMP280;759;53.170;8.210;2023-09-12T12:11:12;100461.78;;;25.53
1532;BMP280;759;53.170;8.210;2023-09-12T12:13:38;100455.31;;;25.56
1532;BMP280;759;53.170;8.210;2023-09-12T12:16:16;100463.34;;;25.37
1532;BMP280;759;53.170;8.210;2023-09-12T12:18:42;100468.66;;;25.76
1532;BMP280;759;53.170;8.210;2023-09-12T12:21:16;100464.53;;;26.00
1532;BMP280;759;53.170;8.210;2023-09-12T12:24:00;100453.38;;;25.92
1532;BMP280;759;53.170;8.210;2023-09-12T12:26:25;100461.41;;;26.50
1532;BMP280;759;53.170;8.210;2023-09-12T12:29:05;100459.63;;;26.53
1532;BMP280;759;53.170;8.210;2023-09-12T12:31:30;100457.09;;;26.55
1532;BMP280;759;53.170;8.210;2023-09-12T12:33:56;100466.56;;;26.60
1532;BMP280;759;53.170;8.210;2023-09-12T12:36:22;100460.88;;;25.86
1532;BMP280;759;53.170;8.210;2023-09-12T12:38:51;100461.16;;;25.83
1532;BMP280;759;53.170;8.210;2023-09-12T12:41:34;100457.44;;;25.80
1532;BMP280;759;53.170;8.210;2023-09-12T12:44:00;100468.91;;;26.14
1532;BMP280;759;53.170;8.210;2023-09-12T12:46:26;100460.03;;;26.02
1532;BMP280;759;53.170;8.210;2023-09-12T12:48:51;100461.69;;;26.47
1532;BMP280;759;53.170;8.210;2023-09-12T12:51:23;100460.53;;;26.01
1532;BMP280;759;53.170;8.210;2023-09-12T12:53:50;100449.91;;;25.34
1532;BMP280;759;53.170;8.210;2023-09-12T12:56:20;100457.91;;;25.84
1532;BMP280;759;53.170;8.210;2023-09-12T12:58:50;100455.91;;;26.20
1532;BMP280;759;53.170;8.210;2023-09-12T13:01:15;100455.69;;;26.48
1532;BMP280;759;53.170;8.210;2023-09-12T13:03:41;100460.34;;;25.93
1532;BMP280;759;53.170;8.210;2023-09-12T13:06:06;100454.72;;;26.16
1532;BMP280;759;53.170;8.210;2023-09-12T13:08:33;100443.97;;;25.82
1532;BMP280;759;53.170;8.210;2023-09-12T13:11:01;100455.31;;;25.97
1532;BMP280;759;53.170;8.210;2023-09-12T13:13:27;100448.41;;;25.85
1532;BMP280;759;53.170;8.210;2023-09-12T13:15:52;100441.94;;;26.24
1532;BMP280;759;53.170;8.210;2023-09-12T13:18:17;100445.38;;;26.54
1532;BMP280;759;53.170;8.210;2023-09-12T13:20:43;100443.41;;;26.79
1532;BMP280;759;53.170;8.210;2023-09-12T13:23:08;100446.81;;;26.67
1532;BMP280;759;53.170;8.210;2023-09-12T13:25:33;100444.84;;;26.62
1532;BMP280;759;53.170;8.210;2023-09-12T13:27:58;100451.34;;;26.59
1532;BMP280;759;53.170;8.210;2023-09-12T13:30:24;100442.66;;;26.54
1532;BMP280;759;53.170;8.210;2023-09-12T13:32:49;100443.16;;;26.53
1532;BMP280;759;53.170;8.210;2023-09-12T13:35:14;100442.88;;;26.81
1532;BMP280;759;53.170;8.210;2023-09-12T13:37:39;100444.06;;;26.67
1532;BMP280;759;53.170;8.210;2023-09-12T13:40:05;100441.88;;;26.60
1532;BMP280;759;53.170;8.210;2023-09-12T13:42:31;100441.97;;;26.48
1532;BMP280;759;53.170;8.210;2023-09-12T13:44:57;100428.50;;;26.50
1532;BMP280;759;53.170;8.210;2023-09-12T13:47:22;100434.06;;;26.39
1532;BMP280;759;53.170;8.210;2023-09-12T13:49:50;100438.88;;;26.58
1532;BMP280;759;53.170;8.210;2023-09-12T13:52:26;100430.34;;;26.67
1532;BMP280;759;53.170;8.210;2023-09-12T13:54:51;100428.75;;;26.96
1532;BMP280;759;53.170;8.210;2023-09-12T13:57:16;100427.06;;;26.38
1532;BMP280;759;53.170;8.210;2023-09-12T13:59:45;100443.75;;;26.46
1532;BMP280;759;53.170;8.210;2023-09-12T14:02:13;100449.28;;;26.65
1532;BMP280;759;53.170;8.210;2023-09-12T14:04:38;100442.28;;;26.69
1532;BMP280;759;53.170;8.210;2023-09-12T14:07:05;100439.13;;;26.84
1532;BMP280;759;53.170;8.210;2023-09-12T14:09:30;100443.56;;;26.87
1532;BMP280;759;53.170;8.210;2023-09-12T14:11:55;100431.38;;;26.34
1532;BMP280;759;53.170;8.210;2023-09-12T14:14:20;100436.31;;;26.90
1532;BMP280;759;53.170;8.210;2023-09-12T14:16:45;100428.38;;;26.62
1532;BMP280;759;53.170;8.210;2023-09-12T14:19:11;100428.19;;;26.54
1532;BMP280;759;53.170;8.210;2023-09-12T14:21:36;100439.63;;;26.58
1532;BMP280;759;53.170;8.210;2023-09-12T14:24:01;100435.56;;;26.10
1532;BMP280;759;53.170;8.210;2023-09-12T14:26:27;100425.78;;;26.15
1532;BMP280;759;53.170;8.210;2023-09-12T14:28:53;100429.44;;;26.53
1532;BMP280;759;53.170;8.210;2023-09-12T14:31:18;100426.59;;;26.64
1532;BMP280;759;53.170;8.210;2023-09-12T14:33:43;100419.69;;;26.82
1532;BMP280;759;53.170;8.210;2023-09-12T14:36:08;100427.47;;;26.53
1532;BMP280;759;53.170;8.210;2023-09-12T14:38:34;100429.38;;;26.59
1532;BMP280;759;53.170;8.210;2023-09-12T14:40:59;100422.25;;;26.74
1532;BMP280;759;53.170;8.210;2023-09-12T14:43:25;100423.00;;;26.99
1532;BMP280;759;53.170;8.210;2023-09-12T14:45:58;100424.03;;;27.15